Cotter, AR

7:31 AM CDT on March 27, 2015 (GMT -0500)
Baxter County Regional | | Change Station
CLOSE
Current Station
Airport
Location: Mountain Home,
Elevation: 925 ft
Nearby Weather Stations

Elev 925 ft 36.37 °N, 92.47 °W | Updated 26 minutes ago

Mostly Cloudy
Mostly Cloudy
36 °F
Feels Like 32 °F
N
5
Wind Variable Wind from North

Today
High -- | Low -- °F
--% Chance of Precip.
Yesterday
High -- | Low -- °F
Precip. -- in
7:03 AM 7:27 PM
First Quarter, 52% visible
Pressure 30.09 in
Visibility 8.0 miles
Clouds Scattered Clouds 900 ft
Mostly Cloudy 2600 ft
Overcast 3100 ft
Windchill 32 °F
Dew Point 35 °F
Humidity 97%
Rainfall 0.07 in
Snow Depth Not available.
UV 0 out of 12
Pollen 8.80 out of 12
Air Quality Not available.
Flu Activity Not available.
SPECI KBPK 271205Z AUTO 01004KT 8SM -RA SCT009 BKN026 OVC031 02/02 A3009 RMK AO2 P0001 T00220017

More Conditions Fewer Conditions

Pressure 30.09 in
Visibility 8.0 miles
Clouds Scattered Clouds 900 ft
Mostly Cloudy 2600 ft
Overcast 3100 ft
Windchill 32 °F
Dew Point 35 °F
Humidity 97%
Rainfall 0.07 in
Snow Depth Not available.
UV 0 out of 12
Pollen 8.80 out of 12
Air Quality Not available.
Flu Activity Not available.
SPECI KBPK 271205Z AUTO 01004KT 8SM -RA SCT009 BKN026 OVC031 02/02 A3009 RMK AO2 P0001 T00220017

More Conditions Fewer Conditions

10-Day Weather Forecast

Almanac

Astronomy

Mar. 27, 2015 Rise Set
Actual Time
Civil Twilight
Nautical Twilight
Astronomical Twilight
Moon
Length of Visible Light
Length of Day
Tomorrow will be .
, % of the Moon is Illuminated

Today's Extremes

State Highs State Lows

Community

WunderPhotos

Upload Photos

1,808,721 photos uploaded!

WunderBlogs® & News

Nearby

Air Quality

  Air Quality AQ Index Pollutant
Not available.

Snow Depth

Station Depth Elevation

Earthquake Activity

City Distance Mag. Time & Date
Minimum magnitude displayed is 2.5.

Coastal Water Temperatures

Place Temperature

Stations

Nearby Weather Stations

Station Location Temp. Windchill Dew Point Humidity Wind Precip. Elev Updated Type